createdAt,value
2019-03-20T00:00:27.056Z,2.60
2019-03-20T00:02:57.812Z,3.00
2019-03-20T00:05:29.627Z,3.33
2019-03-20T00:07:59.715Z,3.47
2019-03-20T00:10:30.942Z,3.10
2019-03-20T00:13:03.016Z,3.10
2019-03-20T00:15:34.831Z,3.33
2019-03-20T00:18:05.154Z,3.10
2019-03-20T00:20:35.690Z,2.53
2019-03-20T00:23:05.911Z,3.33
2019-03-20T00:25:36.594Z,2.70
2019-03-20T00:28:07.762Z,2.60
2019-03-20T00:30:37.996Z,2.20
2019-03-20T00:33:08.287Z,3.27
2019-03-20T00:35:40.686Z,3.07
2019-03-20T00:38:10.737Z,2.70
2019-03-20T00:40:40.992Z,3.10
2019-03-20T00:43:11.335Z,2.60
2019-03-20T00:45:41.593Z,3.00
2019-03-20T00:48:13.304Z,3.07
2019-03-20T00:50:45.525Z,3.27
2019-03-20T00:53:19.727Z,2.50
2019-03-20T00:55:53.266Z,2.40
2019-03-20T00:58:23.765Z,2.60
2019-03-20T01:00:54.108Z,2.43
2019-03-20T01:03:25.619Z,2.33
2019-03-20T01:05:55.763Z,2.60
2019-03-20T01:08:28.613Z,2.50
2019-03-20T01:11:01.692Z,2.77
2019-03-20T01:13:32.302Z,3.07
2019-03-20T01:16:03.526Z,2.40
2019-03-20T01:18:34.247Z,3.00
2019-03-20T01:21:04.523Z,2.30
2019-03-20T01:23:35.582Z,2.20
2019-03-20T01:26:06.256Z,2.37
2019-03-20T01:28:39.066Z,3.17
2019-03-20T01:31:10.446Z,2.67
2019-03-20T01:33:41.246Z,2.77
2019-03-20T01:36:11.542Z,2.70
2019-03-20T01:38:44.094Z,3.07
2019-03-20T01:41:16.617Z,2.97
2019-03-20T01:43:48.399Z,2.80
2019-03-20T01:46:18.870Z,3.37
2019-03-20T01:48:49.281Z,3.03
2019-03-20T01:51:23.819Z,3.20
2019-03-20T01:53:53.942Z,3.37
2019-03-20T01:56:24.119Z,3.17
2019-03-20T01:58:54.282Z,2.80
2019-03-20T02:01:26.279Z,2.80
2019-03-20T02:03:59.718Z,2.97
2019-03-20T02:06:30.372Z,3.23
2019-03-20T02:09:00.597Z,2.60
2019-03-20T02:11:32.782Z,2.77
2019-03-20T02:14:04.067Z,3.00
2019-03-20T02:16:34.423Z,2.80
2019-03-20T02:19:07.341Z,3.43
2019-03-20T02:21:37.996Z,2.83
2019-03-20T02:24:08.781Z,3.90
2019-03-20T02:26:41.777Z,3.03
2019-03-20T02:29:14.126Z,3.23
2019-03-20T02:31:44.305Z,2.83
2019-03-20T02:34:15.459Z,2.83
2019-03-20T02:36:45.637Z,3.00
2019-03-20T02:39:16.006Z,3.10
2019-03-20T02:41:48.046Z,2.80
2019-03-20T02:44:19.314Z,3.10
2019-03-20T02:46:52.498Z,3.13
2019-03-20T02:49:23.275Z,3.27
2019-03-20T02:51:53.611Z,2.63
2019-03-20T02:54:23.855Z,2.93
2019-03-20T02:56:54.104Z,3.30
2019-03-20T02:59:24.267Z,2.80
2019-03-20T03:01:54.427Z,2.70
2019-03-20T03:04:24.912Z,2.70
2019-03-20T03:06:57.847Z,2.67
2019-03-20T03:09:28.093Z,2.43
2019-03-20T03:11:59.935Z,2.23
2019-03-20T03:14:31.172Z,2.80
2019-03-20T03:17:01.554Z,2.40
2019-03-20T03:19:32.650Z,2.70
2019-03-20T03:22:06.653Z,2.37
2019-03-20T03:24:37.042Z,3.30
2019-03-20T03:27:07.428Z,3.07
2019-03-20T03:29:40.322Z,3.57
2019-03-20T03:32:10.486Z,3.20
2019-03-20T03:34:40.716Z,2.93
2019-03-20T03:37:10.957Z,2.90
2019-03-20T03:39:41.776Z,2.60
2019-03-20T03:42:12.089Z,2.80
2019-03-20T03:44:44.599Z,3.20
2019-03-20T03:47:14.772Z,3.07
2019-03-20T03:49:45.121Z,3.00
2019-03-20T03:52:15.791Z,2.80
2019-03-20T03:54:47.334Z,2.50
2019-03-20T03:57:17.602Z,2.93
2019-03-20T03:59:47.762Z,2.58
2019-03-20T04:02:18.201Z,2.30
2019-03-20T04:04:48.837Z,3.10
2019-03-20T04:07:19.167Z,3.15
2019-03-20T04:09:49.477Z,2.97
2019-03-20T04:12:20.406Z,2.77
2019-03-20T04:14:52.525Z,3.30
2019-03-20T04:17:27.509Z,2.80
2019-03-20T04:19:57.844Z,3.27
2019-03-20T04:22:28.156Z,3.90
2019-03-20T04:24:58.604Z,3.23
2019-03-20T04:27:29.280Z,3.30
2019-03-20T04:29:59.892Z,3.10
2019-03-20T04:32:30.028Z,2.93
2019-03-20T04:35:00.485Z,3.47
2019-03-20T04:37:31.130Z,3.00
2019-03-20T04:40:01.432Z,3.17
2019-03-20T04:42:31.684Z,2.73
2019-03-20T04:45:01.971Z,2.70
2019-03-20T04:47:32.318Z,2.90
2019-03-20T04:50:03.018Z,2.30
2019-03-20T04:52:33.267Z,2.70
2019-03-20T04:55:03.926Z,2.60
2019-03-20T04:57:34.229Z,2.47
2019-03-20T05:00:07.686Z,3.17
2019-03-20T05:02:38.085Z,3.17
2019-03-20T05:05:08.991Z,2.77
2019-03-20T05:07:42.409Z,3.20
2019-03-20T05:10:13.981Z,2.87
2019-03-20T05:12:45.479Z,2.50
2019-03-20T05:15:15.963Z,2.43
2019-03-20T05:17:48.804Z,2.90
2019-03-20T05:20:19.172Z,3.33
2019-03-20T05:22:49.563Z,2.77
2019-03-20T05:25:20.898Z,3.13
2019-03-20T05:27:51.455Z,3.00
2019-03-20T05:30:21.822Z,4.20
2019-03-20T05:32:54.984Z,2.83
2019-03-20T05:35:26.479Z,3.00
2019-03-20T05:37:56.871Z,2.60
2019-03-20T05:40:29.434Z,2.85
2019-03-20T05:43:00.033Z,3.53
2019-03-20T05:45:30.234Z,3.10
2019-03-20T05:48:00.676Z,3.67
2019-03-20T05:50:31.085Z,3.10
2019-03-20T05:53:03.274Z,3.10
2019-03-20T05:55:33.503Z,2.07
2019-03-20T05:58:06.455Z,2.80
2019-03-20T06:00:36.835Z,3.30
2019-03-20T06:03:10.170Z,3.60
2019-03-20T06:05:40.898Z,2.47
2019-03-20T06:08:13.274Z,3.10
2019-03-20T06:10:43.586Z,3.40
2019-03-20T06:13:14.609Z,3.50
2019-03-20T06:15:44.843Z,2.87
2019-03-20T06:18:15.204Z,3.40
2019-03-20T06:20:45.471Z,3.30
2019-03-20T06:23:17.614Z,3.10
2019-03-20T06:25:48.255Z,3.03
2019-03-20T06:28:18.853Z,3.70
2019-03-20T06:30:49.138Z,4.07
2019-03-20T06:33:19.538Z,4.40
2019-03-20T06:35:49.687Z,5.47
2019-03-20T06:38:20.166Z,3.83
2019-03-20T06:40:50.793Z,4.47
2019-03-20T06:43:21.204Z,4.28
2019-03-20T06:45:51.527Z,4.30
2019-03-20T06:48:21.684Z,3.63
2019-03-20T06:50:52.003Z,4.97
2019-03-20T06:53:22.738Z,3.67
2019-03-20T06:55:55.328Z,3.00
2019-03-20T06:58:25.798Z,3.63
2019-03-20T07:01:30.384Z,4.23
2019-03-20T07:04:31.288Z,4.43
2019-03-20T07:07:25.627Z,6.07
2019-03-20T07:10:23.862Z,4.50
2019-03-20T07:12:54.298Z,5.00
2019-03-20T07:15:24.504Z,4.53
2019-03-20T07:17:54.788Z,4.57
2019-03-20T07:20:24.948Z,5.90
2019-03-20T07:22:55.114Z,6.17
2019-03-20T07:25:25.366Z,6.83
2019-03-20T07:27:57.732Z,7.67
2019-03-20T07:30:28.156Z,5.53
2019-03-20T07:32:58.621Z,6.10
2019-03-20T07:35:29.013Z,5.73
2019-03-20T07:37:59.945Z,4.90
2019-03-20T07:40:30.040Z,5.63
2019-03-20T07:43:08.853Z,4.50
2019-03-20T07:45:32.743Z,5.40
2019-03-20T07:48:03.465Z,5.57
2019-03-20T07:50:34.243Z,4.80
2019-03-20T07:53:04.539Z,5.00
2019-03-20T07:55:35.413Z,5.37
2019-03-20T07:58:06.229Z,5.70
2019-03-20T08:00:36.838Z,4.30
2019-03-20T08:03:07.274Z,4.90
2019-03-20T08:05:38.449Z,4.50
2019-03-20T08:08:09.706Z,4.97
2019-03-20T08:10:40.259Z,5.00
2019-03-20T08:13:10.600Z,4.60
2019-03-20T08:15:40.889Z,5.10
2019-03-20T08:18:12.762Z,4.93
2019-03-20T08:20:43.119Z,5.97
2019-03-20T08:23:13.515Z,4.50
2019-03-20T08:25:46.218Z,4.33
2019-03-20T08:28:16.623Z,4.60
2019-03-20T08:30:46.903Z,4.40
2019-03-20T08:33:17.273Z,4.67
2019-03-20T08:35:47.485Z,4.60
2019-03-20T08:38:18.912Z,3.77
2019-03-20T08:40:52.707Z,3.77
2019-03-20T08:43:23.081Z,4.20
2019-03-20T08:45:53.543Z,3.57
2019-03-20T08:48:24.133Z,4.30
2019-03-20T08:50:54.641Z,3.93
2019-03-20T08:53:25.431Z,3.33
2019-03-20T08:55:56.074Z,3.70
2019-03-20T08:58:26.595Z,4.97
2019-03-20T09:00:57.391Z,4.67
2019-03-20T09:03:27.948Z,4.70
2019-03-20T09:06:00.318Z,6.17
2019-03-20T09:08:30.939Z,5.10
2019-03-20T09:11:01.424Z,4.53
2019-03-20T09:13:31.993Z,3.40
2019-03-20T09:16:02.310Z,3.63
2019-03-20T09:18:32.693Z,3.57
2019-03-20T09:21:03.587Z,3.13
2019-03-20T09:23:34.714Z,4.50
2019-03-20T09:26:09.047Z,3.15
2019-03-20T09:28:39.874Z,2.80
2019-03-20T09:31:10.375Z,3.35
2019-03-20T09:33:41.201Z,3.05
2019-03-20T09:36:11.708Z,2.75
2019-03-20T09:38:43.777Z,3.20
2019-03-20T09:41:14.172Z,2.67
2019-03-20T09:43:44.574Z,3.05
2019-03-20T09:46:15.088Z,2.35
2019-03-20T09:48:45.520Z,3.08
2019-03-20T09:51:17.958Z,2.27
2019-03-20T09:53:49.725Z,2.25
2019-03-20T09:56:22.801Z,1.98
2019-03-20T09:58:59.011Z,2.35
2019-03-20T10:01:31.834Z,2.15
2019-03-20T10:04:04.617Z,2.25
2019-03-20T10:06:34.808Z,1.90
2019-03-20T10:09:09.370Z,1.30
2019-03-20T10:11:39.696Z,1.65
2019-03-20T10:14:13.493Z,1.40
2019-03-20T10:16:43.878Z,1.65
2019-03-20T10:19:17.258Z,1.77
2019-03-20T10:21:47.518Z,0.98
2019-03-20T10:24:17.848Z,1.40
2019-03-20T10:26:50.335Z,1.60
2019-03-20T10:29:20.886Z,1.80
2019-03-20T10:31:51.076Z,1.30
2019-03-20T10:34:21.469Z,1.27
2019-03-20T10:36:54.999Z,1.42
2019-03-20T10:39:25.573Z,1.67
2019-03-20T10:41:56.062Z,1.75
2019-03-20T10:44:26.780Z,1.85
2019-03-20T10:46:57.094Z,1.65
2019-03-20T10:49:27.415Z,1.40
2019-03-20T10:52:04.868Z,1.22
2019-03-20T10:54:37.700Z,1.50
2019-03-20T10:57:08.391Z,1.45
2019-03-20T10:59:39.018Z,1.90
2019-03-20T11:02:09.203Z,2.45
2019-03-20T11:04:39.850Z,1.45
2019-03-20T11:07:10.318Z,1.20
2019-03-20T11:09:40.644Z,1.37
2019-03-20T11:12:11.123Z,1.30
2019-03-20T11:14:41.717Z,1.45
2019-03-20T11:17:12.203Z,1.42
2019-03-20T11:19:45.911Z,1.52
2019-03-20T11:22:19.212Z,1.30
2019-03-20T11:24:50.439Z,1.50
2019-03-20T11:27:20.839Z,1.62
2019-03-20T11:29:54.406Z,1.80
2019-03-20T11:32:25.209Z,1.90
2019-03-20T11:34:56.435Z,1.10
2019-03-20T11:37:26.704Z,1.37
2019-03-20T11:39:57.080Z,1.80
2019-03-20T11:42:29.614Z,1.60
2019-03-20T11:45:00.640Z,1.80
2019-03-20T11:47:31.155Z,1.90
2019-03-20T11:50:04.188Z,1.57
2019-03-20T11:52:34.326Z,2.00
2019-03-20T11:55:05.570Z,1.40
2019-03-20T11:57:35.855Z,1.70
2019-03-20T12:00:07.739Z,1.67
2019-03-20T12:02:37.990Z,1.50
2019-03-20T12:05:11.134Z,1.80
2019-03-20T12:07:41.431Z,1.55
2019-03-20T12:10:14.851Z,1.80
2019-03-20T12:12:45.327Z,1.45
2019-03-20T12:15:15.744Z,1.72
2019-03-20T12:17:45.973Z,1.85
2019-03-20T12:20:17.726Z,1.70
2019-03-20T12:22:50.168Z,1.70
2019-03-20T12:25:23.488Z,1.65
2019-03-20T12:27:53.762Z,1.70
2019-03-20T12:30:27.197Z,1.67
2019-03-20T12:32:57.678Z,1.30
2019-03-20T12:35:29.038Z,1.25
2019-03-20T12:37:59.452Z,1.30
2019-03-20T12:40:30.687Z,1.40
2019-03-20T12:43:01.424Z,1.57
2019-03-20T12:45:33.099Z,1.50
2019-03-20T12:48:03.370Z,1.40
2019-03-20T12:50:33.635Z,1.60
2019-03-20T12:53:04.200Z,1.90
2019-03-20T12:55:34.902Z,1.62
2019-03-20T12:58:05.759Z,1.35
2019-03-20T13:00:36.068Z,1.42
2019-03-20T13:03:06.351Z,1.20
2019-03-20T13:05:36.608Z,1.10
2019-03-20T13:08:07.273Z,1.60
2019-03-20T13:10:38.911Z,1.50
2019-03-20T13:13:09.200Z,3.27
2019-03-20T13:15:39.470Z,2.05
2019-03-20T13:18:10.104Z,2.00
2019-03-20T13:20:40.699Z,1.47
2019-03-20T13:23:15.823Z,1.20
2019-03-20T13:25:46.170Z,1.27
2019-03-20T13:28:20.817Z,1.40
2019-03-20T13:30:57.056Z,1.57
2019-03-20T13:33:28.489Z,1.80
2019-03-20T13:35:59.121Z,2.00
2019-03-20T13:38:29.478Z,2.55
2019-03-20T13:40:59.882Z,1.67
2019-03-20T13:43:30.230Z,1.67
2019-03-20T13:46:01.241Z,1.70
2019-03-20T13:48:32.792Z,2.22
2019-03-20T13:51:03.467Z,1.60
2019-03-20T13:53:36.810Z,1.77
2019-03-20T13:56:07.035Z,1.40
2019-03-20T13:58:37.448Z,1.67
2019-03-20T14:01:08.126Z,1.73
2019-03-20T14:03:38.396Z,1.50
2019-03-20T14:06:11.329Z,1.87
2019-03-20T14:08:41.582Z,2.13
2019-03-20T14:11:13.744Z,2.10
2019-03-20T14:13:44.001Z,1.80
2019-03-20T14:16:14.286Z,1.60
2019-03-20T14:18:44.528Z,1.90
2019-03-20T14:21:14.738Z,2.50
2019-03-20T14:23:46.995Z,1.70
2019-03-20T14:26:17.215Z,1.93
2019-03-20T14:28:47.420Z,1.50
2019-03-20T14:31:20.870Z,1.67
2019-03-20T14:33:51.366Z,1.50
2019-03-20T14:36:21.730Z,1.83
2019-03-20T14:38:51.937Z,2.53
2019-03-20T14:41:24.781Z,1.63
2019-03-20T14:43:56.205Z,1.80
2019-03-20T14:46:26.484Z,2.03
2019-03-20T14:48:56.666Z,2.57
2019-03-20T14:51:27.137Z,2.10
2019-03-20T14:53:57.253Z,2.50
2019-03-20T14:56:27.711Z,2.37
2019-03-20T14:58:58.999Z,1.60
2019-03-20T15:01:31.071Z,3.10
2019-03-20T15:04:03.994Z,2.90
2019-03-20T15:06:34.529Z,2.42
2019-03-20T15:09:07.203Z,2.13
2019-03-20T15:11:37.782Z,2.80
2019-03-20T15:14:08.179Z,1.80
2019-03-20T15:16:39.981Z,1.87
2019-03-20T15:19:10.496Z,1.90
2019-03-20T15:21:44.235Z,1.47
2019-03-20T15:24:15.800Z,1.80
2019-03-20T15:26:46.229Z,1.87
2019-03-20T15:29:16.365Z,1.80
2019-03-20T15:31:47.390Z,1.43
2019-03-20T15:34:17.638Z,1.73
2019-03-20T15:36:48.187Z,1.70
2019-03-20T15:39:18.825Z,2.10
2019-03-20T15:41:49.357Z,2.10
2019-03-20T15:44:19.501Z,1.90
2019-03-20T15:46:50.034Z,3.13
2019-03-20T15:49:20.214Z,1.90
2019-03-20T15:51:50.814Z,2.43
2019-03-20T15:54:21.164Z,2.50
2019-03-20T15:56:51.480Z,2.27
2019-03-20T15:59:21.690Z,1.37
2019-03-20T16:01:53.144Z,1.90
2019-03-20T16:04:24.892Z,1.67
2019-03-20T16:06:57.411Z,1.83
2019-03-20T16:09:28.019Z,1.80
2019-03-20T16:11:58.360Z,1.80
2019-03-20T16:14:28.863Z,9.70
2019-03-20T16:16:59.138Z,8.23
2019-03-20T16:19:29.776Z,2.53
2019-03-20T16:22:00.208Z,1.90
2019-03-20T16:24:30.613Z,2.33
2019-03-20T16:27:03.829Z,1.27
2019-03-20T16:29:35.634Z,1.90
2019-03-20T16:32:11.588Z,1.83
2019-03-20T16:34:41.952Z,2.10
2019-03-20T16:37:12.158Z,2.53
2019-03-20T16:39:42.513Z,1.30
2019-03-20T16:42:12.889Z,2.20
2019-03-20T16:44:43.391Z,2.03
2019-03-20T16:47:16.016Z,2.43
2019-03-20T16:49:46.441Z,2.30
2019-03-20T16:52:17.079Z,1.37
2019-03-20T16:54:47.531Z,1.80
2019-03-20T16:57:18.155Z,1.53
2019-03-20T16:59:48.555Z,1.33
2019-03-20T17:02:19.071Z,2.23
2019-03-20T17:04:49.747Z,1.40
2019-03-20T17:07:20.345Z,1.83
2019-03-20T17:09:56.640Z,2.10
2019-03-20T17:12:26.880Z,2.37
2019-03-20T17:14:57.426Z,2.60
2019-03-20T17:17:27.896Z,3.20
2019-03-20T17:19:58.052Z,3.17
2019-03-20T17:22:29.578Z,2.23
2019-03-20T17:24:59.714Z,2.93
2019-03-20T17:27:29.892Z,2.33
2019-03-20T17:30:00.323Z,1.93
2019-03-20T17:32:31.009Z,3.27
2019-03-20T17:35:01.210Z,1.43
2019-03-20T17:37:36.013Z,1.90
2019-03-20T17:40:07.158Z,2.73
2019-03-20T17:42:39.924Z,3.23
2019-03-20T17:45:12.010Z,2.57
2019-03-20T17:47:42.261Z,1.60
2019-03-20T17:50:18.382Z,2.70
2019-03-20T17:53:08.562Z,2.27
2019-03-20T17:55:38.874Z,1.30
2019-03-20T17:58:10.486Z,1.83
2019-03-20T18:00:43.376Z,2.30
2019-03-20T18:03:13.876Z,2.50
2019-03-20T18:05:44.549Z,1.23
2019-03-20T18:08:14.820Z,1.17
2019-03-20T18:10:45.185Z,2.10
2019-03-20T18:13:15.783Z,1.60
2019-03-20T18:15:46.262Z,1.33
2019-03-20T18:18:16.739Z,2.00
2019-03-20T18:20:46.878Z,2.10
2019-03-20T18:23:20.040Z,1.80
2019-03-20T18:25:50.292Z,1.53
2019-03-20T18:28:21.752Z,2.40
2019-03-20T18:30:54.138Z,1.80
2019-03-20T18:33:24.541Z,1.57
2019-03-20T18:35:55.320Z,1.87
2019-03-20T18:38:27.168Z,1.73
2019-03-20T18:40:57.842Z,1.13
2019-03-20T18:43:29.120Z,1.60
2019-03-20T18:46:01.279Z,1.83
2019-03-20T18:48:36.202Z,1.93
2019-03-20T18:51:06.630Z,1.07
2019-03-20T18:53:39.699Z,1.77
2019-03-20T18:56:09.960Z,2.17
2019-03-20T18:58:40.339Z,2.40
2019-03-20T19:01:10.571Z,2.17
2019-03-20T19:03:43.312Z,3.23
2019-03-20T19:06:17.717Z,2.37
2019-03-20T19:08:48.078Z,2.67
2019-03-20T19:11:18.359Z,3.50
2019-03-20T19:13:52.019Z,3.97
2019-03-20T19:16:22.366Z,6.37
2019-03-20T19:18:53.386Z,5.87
2019-03-20T19:21:23.678Z,4.07
2019-03-20T19:23:55.208Z,2.37
2019-03-20T19:26:25.982Z,2.40
2019-03-20T19:28:56.328Z,3.00
2019-03-20T19:31:29.360Z,4.00
2019-03-20T19:34:00.700Z,4.10
2019-03-20T19:36:30.858Z,6.07
2019-03-20T19:39:01.206Z,3.30
2019-03-20T19:41:33.071Z,3.27
2019-03-20T19:44:04.815Z,9.90
2019-03-20T19:46:35.372Z,4.60
2019-03-20T19:49:06.424Z,2.70
2019-03-20T19:51:36.781Z,2.20
2019-03-20T19:54:07.174Z,1.83
2019-03-20T19:56:39.190Z,2.50
2019-03-20T19:59:11.709Z,2.23
2019-03-20T20:01:42.401Z,2.08
2019-03-20T20:04:14.459Z,3.57
2019-03-20T20:06:47.552Z,2.60
2019-03-20T20:09:19.220Z,3.47
2019-03-20T20:11:50.009Z,2.17
2019-03-20T20:14:21.253Z,1.80
2019-03-20T20:16:53.966Z,2.23
2019-03-20T20:19:24.575Z,1.50
2019-03-20T20:21:55.183Z,1.65
2019-03-20T20:24:26.119Z,1.80
2019-03-20T20:26:56.832Z,2.00
2019-03-20T20:29:27.615Z,2.10
2019-03-20T20:32:07.607Z,1.90
2019-03-20T20:34:33.432Z,2.23
2019-03-20T20:37:03.891Z,2.00
2019-03-20T20:39:34.306Z,1.97
2019-03-20T20:42:11.769Z,2.00
2019-03-20T20:44:45.082Z,2.27
2019-03-20T20:47:18.531Z,2.03
2019-03-20T20:49:49.553Z,2.13
2019-03-20T20:52:20.805Z,2.33
2019-03-20T20:54:51.454Z,1.93
2019-03-20T20:57:22.020Z,1.55
2019-03-20T20:59:52.360Z,2.10
2019-03-20T21:02:26.961Z,2.20
2019-03-20T21:04:57.631Z,1.60
2019-03-20T21:07:27.872Z,1.80
2019-03-20T21:09:58.112Z,1.57
2019-03-20T21:12:31.232Z,2.03
2019-03-20T21:15:05.891Z,1.97
2019-03-20T21:17:50.865Z,2.00
2019-03-20T21:20:21.843Z,2.00
2019-03-20T21:23:40.350Z,1.70
2019-03-20T21:26:13.760Z,1.70
2019-03-20T21:29:27.180Z,1.50
2019-03-20T21:32:09.840Z,2.73
2019-03-20T21:35:25.971Z,2.65
2019-03-20T21:38:04.361Z,1.90
2019-03-20T21:40:54.488Z,2.30
2019-03-20T21:44:06.836Z,2.07
2019-03-20T21:47:21.244Z,2.10
2019-03-20T21:49:53.045Z,2.17
2019-03-20T21:52:25.585Z,1.80
2019-03-20T21:55:40.352Z,2.13
2019-03-20T21:58:34.961Z,1.80
2019-03-20T22:01:52.662Z,2.70
2019-03-20T22:04:23.968Z,2.67
2019-03-20T22:07:07.139Z,1.90
2019-03-20T22:10:16.329Z,2.60
2019-03-20T22:12:56.225Z,3.10
2019-03-20T22:15:41.628Z,1.93
2019-03-20T22:19:02.421Z,2.17
2019-03-20T22:22:09.956Z,2.13
2019-03-20T22:25:16.544Z,2.30
2019-03-20T22:27:58.883Z,2.43
2019-03-20T22:30:29.829Z,1.93
2019-03-20T22:33:49.212Z,2.37
2019-03-20T22:36:24.544Z,2.43
2019-03-20T22:39:54.035Z,2.17
2019-03-20T22:42:49.057Z,2.10
2019-03-20T22:46:05.677Z,2.60
2019-03-20T22:49:17.307Z,2.67
2019-03-20T22:52:35.697Z,2.23
2019-03-20T22:55:37.970Z,1.57
2019-03-20T22:58:28.102Z,1.80
2019-03-20T23:00:58.979Z,1.83
2019-03-20T23:03:35.030Z,2.60
2019-03-20T23:06:06.136Z,2.20
2019-03-20T23:08:36.831Z,2.20
2019-03-20T23:11:08.840Z,1.87
2019-03-20T23:13:41.731Z,2.27
2019-03-20T23:16:13.668Z,2.60
2019-03-20T23:18:47.770Z,2.43
2019-03-20T23:21:19.000Z,2.30
2019-03-20T23:23:49.847Z,2.53
2019-03-20T23:26:20.621Z,2.40
2019-03-20T23:28:51.989Z,2.70
2019-03-20T23:31:22.931Z,2.57
2019-03-20T23:33:53.964Z,2.52
2019-03-20T23:36:27.041Z,2.63
2019-03-20T23:38:58.228Z,3.13
2019-03-20T23:41:29.372Z,2.27
2019-03-20T23:44:01.458Z,4.10
2019-03-20T23:46:32.283Z,2.87
2019-03-20T23:49:15.527Z,2.57
2019-03-20T23:51:52.148Z,2.40
2019-03-20T23:54:28.129Z,2.23
2019-03-20T23:56:58.925Z,2.00
2019-03-20T23:59:32.803Z,2.20
